Terminal Aerodrome Forecast
Issued by NWS

Current Version | Previous Version | Text Only | Print | Product List | Glossary On
Versions: 1 2 3 4 5 6 7 8 9 10 11
000
FTAK31 PAFA 132332
TAFATA
TAF
PATA 132332Z 1400/1424 09010G19KT P6SM BKN140
     FM141100 09010KT P6SM OVC025 PROB30 1411/1416 4SM -FZRA OVC015
     FM142300 04002KT P6SM OVC050=

USA.gov is the U.S. government's official web portal to all federal, state and local government web resources and services.